sensor_id;sensor_type;location;lat;lon;timestamp;temperature;humidity
25440;DHT22;13365;52.208;5.488;2023-06-22T00:01:56;23.80;83.70
25440;DHT22;13365;52.208;5.488;2023-06-22T00:04:21;23.70;84.00
25440;DHT22;13365;52.208;5.488;2023-06-22T00:06:47;23.60;84.20
25440;DHT22;13365;52.208;5.488;2023-06-22T00:09:12;23.60;84.50
25440;DHT22;13365;52.208;5.488;2023-06-22T00:11:38;23.50;84.60
25440;DHT22;13365;52.208;5.488;2023-06-22T00:14:04;23.50;84.90
25440;DHT22;13365;52.208;5.488;2023-06-22T00:16:31;23.50;84.80
25440;DHT22;13365;52.208;5.488;2023-06-22T00:18:57;23.40;85.00
25440;DHT22;13365;52.208;5.488;2023-06-22T00:21:26;23.50;85.30
25440;DHT22;13365;52.208;5.488;2023-06-22T00:23:51;23.60;85.20
25440;DHT22;13365;52.208;5.488;2023-06-22T00:26:17;23.50;84.90
25440;DHT22;13365;52.208;5.488;2023-06-22T00:28:42;23.50;86.00
25440;DHT22;13365;52.208;5.488;2023-06-22T00:31:08;23.50;85.10
25440;DHT22;13365;52.208;5.488;2023-06-22T00:33:33;23.40;85.00
25440;DHT22;13365;52.208;5.488;2023-06-22T00:35:59;23.30;84.80
25440;DHT22;13365;52.208;5.488;2023-06-22T00:38:24;23.30;85.10
25440;DHT22;13365;52.208;5.488;2023-06-22T00:40:50;23.30;85.20
25440;DHT22;13365;52.208;5.488;2023-06-22T00:43:15;23.30;85.70
25440;DHT22;13365;52.208;5.488;2023-06-22T00:45:41;23.40;86.00
25440;DHT22;13365;52.208;5.488;2023-06-22T00:48:07;23.40;86.40
25440;DHT22;13365;52.208;5.488;2023-06-22T00:50:33;23.30;86.30
25440;DHT22;13365;52.208;5.488;2023-06-22T00:53:07;23.20;86.10
25440;DHT22;13365;52.208;5.488;2023-06-22T00:55:44;23.20;85.80
25440;DHT22;13365;52.208;5.488;2023-06-22T00:58:11;23.20;85.40
25440;DHT22;13365;52.208;5.488;2023-06-22T01:00:38;23.20;85.30
25440;DHT22;13365;52.208;5.488;2023-06-22T01:03:04;23.10;85.20
25440;DHT22;13365;52.208;5.488;2023-06-22T01:05:34;23.10;85.30
25440;DHT22;13365;52.208;5.488;2023-06-22T01:08:29;23.10;85.50
25440;DHT22;13365;52.208;5.488;2023-06-22T01:13:57;23.10;85.40
25440;DHT22;13365;52.208;5.488;2023-06-22T01:16:30;23.00;85.40
25440;DHT22;13365;52.208;5.488;2023-06-22T01:19:09;22.90;85.30
25440;DHT22;13365;52.208;5.488;2023-06-22T01:21:38;23.00;85.60
25440;DHT22;13365;52.208;5.488;2023-06-22T01:24:21;22.90;85.80
25440;DHT22;13365;52.208;5.488;2023-06-22T01:29:40;22.80;85.80
25440;DHT22;13365;52.208;5.488;2023-06-22T01:32:09;22.70;85.80
25440;DHT22;13365;52.208;5.488;2023-06-22T01:34:37;22.70;85.90
25440;DHT22;13365;52.208;5.488;2023-06-22T01:37:05;22.60;85.70
25440;DHT22;13365;52.208;5.488;2023-06-22T01:39:32;22.50;85.90
25440;DHT22;13365;52.208;5.488;2023-06-22T01:41:57;22.40;86.00
25440;DHT22;13365;52.208;5.488;2023-06-22T01:44:25;22.40;86.10
25440;DHT22;13365;52.208;5.488;2023-06-22T01:46:51;22.40;86.20
25440;DHT22;13365;52.208;5.488;2023-06-22T01:49:17;22.30;86.10
25440;DHT22;13365;52.208;5.488;2023-06-22T01:51:43;22.30;86.00
25440;DHT22;13365;52.208;5.488;2023-06-22T01:54:09;22.30;86.20
25440;DHT22;13365;52.208;5.488;2023-06-22T01:56:34;22.30;86.30
25440;DHT22;13365;52.208;5.488;2023-06-22T01:59:14;22.20;86.10
25440;DHT22;13365;52.208;5.488;2023-06-22T02:01:50;22.20;85.80
25440;DHT22;13365;52.208;5.488;2023-06-22T02:04:26;22.10;85.90
25440;DHT22;13365;52.208;5.488;2023-06-22T02:06:56;22.10;85.90
25440;DHT22;13365;52.208;5.488;2023-06-22T02:09:23;22.10;86.10
25440;DHT22;13365;52.208;5.488;2023-06-22T02:11:51;22.00;86.00
25440;DHT22;13365;52.208;5.488;2023-06-22T02:14:20;22.00;86.00
25440;DHT22;13365;52.208;5.488;2023-06-22T02:16:46;22.00;85.80
25440;DHT22;13365;52.208;5.488;2023-06-22T02:19:11;22.00;86.00
25440;DHT22;13365;52.208;5.488;2023-06-22T02:21:37;21.90;85.90
25440;DHT22;13365;52.208;5.488;2023-06-22T02:24:03;21.90;85.90
25440;DHT22;13365;52.208;5.488;2023-06-22T02:26:30;21.90;85.70
25440;DHT22;13365;52.208;5.488;2023-06-22T02:28:56;22.00;86.00
25440;DHT22;13365;52.208;5.488;2023-06-22T02:31:21;21.90;86.00
25440;DHT22;13365;52.208;5.488;2023-06-22T02:33:47;21.90;87.10
25440;DHT22;13365;52.208;5.488;2023-06-22T02:36:15;21.90;87.10
25440;DHT22;13365;52.208;5.488;2023-06-22T02:38:41;21.90;87.10
25440;DHT22;13365;52.208;5.488;2023-06-22T02:41:14;21.90;87.50
25440;DHT22;13365;52.208;5.488;2023-06-22T02:43:43;21.80;87.70
25440;DHT22;13365;52.208;5.488;2023-06-22T02:46:09;21.80;87.90
25440;DHT22;13365;52.208;5.488;2023-06-22T02:48:35;21.80;88.50
25440;DHT22;13365;52.208;5.488;2023-06-22T02:51:00;21.80;88.50
25440;DHT22;13365;52.208;5.488;2023-06-22T02:53:26;21.70;88.60
25440;DHT22;13365;52.208;5.488;2023-06-22T02:55:51;21.80;88.60
25440;DHT22;13365;52.208;5.488;2023-06-22T02:58:17;21.90;88.80
25440;DHT22;13365;52.208;5.488;2023-06-22T03:00:42;21.80;88.80
25440;DHT22;13365;52.208;5.488;2023-06-22T03:03:08;21.70;88.80
25440;DHT22;13365;52.208;5.488;2023-06-22T03:05:33;21.70;88.80
25440;DHT22;13365;52.208;5.488;2023-06-22T03:08:00;21.70;88.60
25440;DHT22;13365;52.208;5.488;2023-06-22T03:10:26;21.60;88.20
25440;DHT22;13365;52.208;5.488;2023-06-22T03:12:51;21.60;88.10
25440;DHT22;13365;52.208;5.488;2023-06-22T03:15:17;21.60;87.90
25440;DHT22;13365;52.208;5.488;2023-06-22T03:17:45;21.60;87.90
25440;DHT22;13365;52.208;5.488;2023-06-22T03:20:11;21.60;88.10
25440;DHT22;13365;52.208;5.488;2023-06-22T03:22:40;21.60;88.20
25440;DHT22;13365;52.208;5.488;2023-06-22T03:25:07;21.60;87.80
25440;DHT22;13365;52.208;5.488;2023-06-22T03:27:38;21.50;88.00
25440;DHT22;13365;52.208;5.488;2023-06-22T03:30:06;21.40;88.00
25440;DHT22;13365;52.208;5.488;2023-06-22T03:32:32;21.50;88.30
25440;DHT22;13365;52.208;5.488;2023-06-22T03:34:57;21.50;88.70
25440;DHT22;13365;52.208;5.488;2023-06-22T03:37:25;21.40;89.00
25440;DHT22;13365;52.208;5.488;2023-06-22T03:39:51;21.50;88.80
25440;DHT22;13365;52.208;5.488;2023-06-22T03:42:17;21.20;88.50
25440;DHT22;13365;52.208;5.488;2023-06-22T03:44:42;21.30;88.90
25440;DHT22;13365;52.208;5.488;2023-06-22T03:47:08;21.30;88.80
25440;DHT22;13365;52.208;5.488;2023-06-22T03:49:34;21.30;89.40
25440;DHT22;13365;52.208;5.488;2023-06-22T03:52:01;21.30;88.80
25440;DHT22;13365;52.208;5.488;2023-06-22T03:54:28;21.20;88.90
25440;DHT22;13365;52.208;5.488;2023-06-22T03:56:54;21.30;89.30
25440;DHT22;13365;52.208;5.488;2023-06-22T03:59:19;21.30;89.50
25440;DHT22;13365;52.208;5.488;2023-06-22T04:01:45;21.30;89.80
25440;DHT22;13365;52.208;5.488;2023-06-22T04:04:11;21.30;90.00
25440;DHT22;13365;52.208;5.488;2023-06-22T04:06:38;21.40;90.20
25440;DHT22;13365;52.208;5.488;2023-06-22T04:09:05;21.40;90.20
25440;DHT22;13365;52.208;5.488;2023-06-22T04:11:30;21.50;90.40
25440;DHT22;13365;52.208;5.488;2023-06-22T04:13:56;21.50;90.50
25440;DHT22;13365;52.208;5.488;2023-06-22T04:16:21;21.60;90.40
25440;DHT22;13365;52.208;5.488;2023-06-22T04:18:47;21.60;90.40
25440;DHT22;13365;52.208;5.488;2023-06-22T04:21:13;21.70;90.60
25440;DHT22;13365;52.208;5.488;2023-06-22T04:23:38;21.70;90.60
25440;DHT22;13365;52.208;5.488;2023-06-22T04:26:04;21.80;90.70
25440;DHT22;13365;52.208;5.488;2023-06-22T04:28:30;21.90;90.70
25440;DHT22;13365;52.208;5.488;2023-06-22T04:31:02;22.00;91.10
25440;DHT22;13365;52.208;5.488;2023-06-22T04:33:28;22.00;91.50
25440;DHT22;13365;52.208;5.488;2023-06-22T04:35:55;22.00;91.80
25440;DHT22;13365;52.208;5.488;2023-06-22T04:38:22;22.10;92.20
25440;DHT22;13365;52.208;5.488;2023-06-22T04:40:48;22.10;92.40
25440;DHT22;13365;52.208;5.488;2023-06-22T04:43:14;22.30;92.50
25440;DHT22;13365;52.208;5.488;2023-06-22T04:45:39;22.40;92.80
25440;DHT22;13365;52.208;5.488;2023-06-22T04:48:05;22.40;93.00
25440;DHT22;13365;52.208;5.488;2023-06-22T04:50:31;22.40;93.20
25440;DHT22;13365;52.208;5.488;2023-06-22T04:52:56;22.40;93.30
25440;DHT22;13365;52.208;5.488;2023-06-22T04:55:23;22.40;93.60
25440;DHT22;13365;52.208;5.488;2023-06-22T04:57:51;22.40;93.80
25440;DHT22;13365;52.208;5.488;2023-06-22T05:00:20;22.40;94.00
25440;DHT22;13365;52.208;5.488;2023-06-22T05:02:48;22.40;94.40
25440;DHT22;13365;52.208;5.488;2023-06-22T05:05:14;22.60;94.40
25440;DHT22;13365;52.208;5.488;2023-06-22T05:07:45;22.70;94.70
25440;DHT22;13365;52.208;5.488;2023-06-22T05:10:11;22.70;94.60
25440;DHT22;13365;52.208;5.488;2023-06-22T05:12:38;22.80;94.60
25440;DHT22;13365;52.208;5.488;2023-06-22T05:15:04;22.90;94.40
25440;DHT22;13365;52.208;5.488;2023-06-22T05:17:30;23.00;94.40
25440;DHT22;13365;52.208;5.488;2023-06-22T05:19:55;23.20;94.40
25440;DHT22;13365;52.208;5.488;2023-06-22T05:22:21;23.30;94.10
25440;DHT22;13365;52.208;5.488;2023-06-22T05:24:47;23.50;93.80
25440;DHT22;13365;52.208;5.488;2023-06-22T05:27:13;23.40;94.10
25440;DHT22;13365;52.208;5.488;2023-06-22T05:29:39;23.50;94.10
25440;DHT22;13365;52.208;5.488;2023-06-22T05:32:05;23.60;94.30
25440;DHT22;13365;52.208;5.488;2023-06-22T05:34:30;23.70;94.30
25440;DHT22;13365;52.208;5.488;2023-06-22T05:36:56;23.80;94.30
25440;DHT22;13365;52.208;5.488;2023-06-22T05:39:24;23.90;94.10
25440;DHT22;13365;52.208;5.488;2023-06-22T05:41:49;24.00;93.80
25440;DHT22;13365;52.208;5.488;2023-06-22T05:44:15;24.00;94.10
25440;DHT22;13365;52.208;5.488;2023-06-22T05:46:42;23.90;94.40
25440;DHT22;13365;52.208;5.488;2023-06-22T05:49:10;24.00;94.60
25440;DHT22;13365;52.208;5.488;2023-06-22T05:51:36;24.10;94.50
25440;DHT22;13365;52.208;5.488;2023-06-22T05:54:02;24.30;94.20
25440;DHT22;13365;52.208;5.488;2023-06-22T05:56:27;24.30;93.80
25440;DHT22;13365;52.208;5.488;2023-06-22T05:58:54;24.40;93.80
25440;DHT22;13365;52.208;5.488;2023-06-22T06:01:20;24.50;93.90
25440;DHT22;13365;52.208;5.488;2023-06-22T06:03:45;24.50;93.90
25440;DHT22;13365;52.208;5.488;2023-06-22T06:06:11;24.50;94.00
25440;DHT22;13365;52.208;5.488;2023-06-22T06:08:38;24.70;94.00
25440;DHT22;13365;52.208;5.488;2023-06-22T06:11:03;24.80;93.60
25440;DHT22;13365;52.208;5.488;2023-06-22T06:13:29;25.10;93.60
25440;DHT22;13365;52.208;5.488;2023-06-22T06:15:56;25.10;93.40
25440;DHT22;13365;52.208;5.488;2023-06-22T06:18:22;25.10;93.30
25440;DHT22;13365;52.208;5.488;2023-06-22T06:20:48;25.30;93.30
25440;DHT22;13365;52.208;5.488;2023-06-22T06:23:14;25.40;93.40
25440;DHT22;13365;52.208;5.488;2023-06-22T06:25:39;25.50;93.10
25440;DHT22;13365;52.208;5.488;2023-06-22T06:28:05;25.50;92.90
25440;DHT22;13365;52.208;5.488;2023-06-22T06:30:30;25.80;92.70
25440;DHT22;13365;52.208;5.488;2023-06-22T06:32:56;25.80;92.30
25440;DHT22;13365;52.208;5.488;2023-06-22T06:35:22;25.90;91.90
25440;DHT22;13365;52.208;5.488;2023-06-22T06:37:49;26.00;92.00
25440;DHT22;13365;52.208;5.488;2023-06-22T06:40:15;26.50;92.10
25440;DHT22;13365;52.208;5.488;2023-06-22T06:42:42;26.60;90.60
25440;DHT22;13365;52.208;5.488;2023-06-22T06:45:11;26.50;90.20
25440;DHT22;13365;52.208;5.488;2023-06-22T06:47:37;26.40;91.00
25440;DHT22;13365;52.208;5.488;2023-06-22T06:50:04;26.40;90.80
25440;DHT22;13365;52.208;5.488;2023-06-22T06:52:30;26.50;90.90
25440;DHT22;13365;52.208;5.488;2023-06-22T06:54:55;26.50;90.90
25440;DHT22;13365;52.208;5.488;2023-06-22T06:57:21;26.80;90.90
25440;DHT22;13365;52.208;5.488;2023-06-22T06:59:48;26.90;90.50
25440;DHT22;13365;52.208;5.488;2023-06-22T07:02:15;27.00;90.50
25440;DHT22;13365;52.208;5.488;2023-06-22T07:04:41;26.90;89.70
25440;DHT22;13365;52.208;5.488;2023-06-22T07:07:07;26.90;90.10
25440;DHT22;13365;52.208;5.488;2023-06-22T07:09:32;27.00;90.30
25440;DHT22;13365;52.208;5.488;2023-06-22T07:11:58;27.10;90.20
25440;DHT22;13365;52.208;5.488;2023-06-22T07:14:23;27.30;87.20
25440;DHT22;13365;52.208;5.488;2023-06-22T07:16:49;27.20;88.10
25440;DHT22;13365;52.208;5.488;2023-06-22T07:19:14;27.20;87.00
25440;DHT22;13365;52.208;5.488;2023-06-22T07:21:40;27.20;86.20
25440;DHT22;13365;52.208;5.488;2023-06-22T07:24:06;27.20;86.10
25440;DHT22;13365;52.208;5.488;2023-06-22T07:26:32;27.30;86.90
25440;DHT22;13365;52.208;5.488;2023-06-22T07:28:58;27.50;85.30
25440;DHT22;13365;52.208;5.488;2023-06-22T07:31:24;27.60;85.70
25440;DHT22;13365;52.208;5.488;2023-06-22T07:33:50;28.00;85.30
25440;DHT22;13365;52.208;5.488;2023-06-22T07:36:16;28.30;83.80
25440;DHT22;13365;52.208;5.488;2023-06-22T07:38:42;28.50;82.60
25440;DHT22;13365;52.208;5.488;2023-06-22T07:41:08;28.70;79.30
25440;DHT22;13365;52.208;5.488;2023-06-22T07:43:33;28.70;80.10
25440;DHT22;13365;52.208;5.488;2023-06-22T07:46:02;28.70;79.50
25440;DHT22;13365;52.208;5.488;2023-06-22T07:48:28;28.70;82.20
25440;DHT22;13365;52.208;5.488;2023-06-22T07:50:54;29.20;81.40
25440;DHT22;13365;52.208;5.488;2023-06-22T07:53:21;29.70;80.60
25440;DHT22;13365;52.208;5.488;2023-06-22T07:55:48;30.00;77.50
25440;DHT22;13365;52.208;5.488;2023-06-22T07:58:14;30.30;77.60
25440;DHT22;13365;52.208;5.488;2023-06-22T08:00:41;30.60;76.90
25440;DHT22;13365;52.208;5.488;2023-06-22T08:03:06;30.80;76.20
25440;DHT22;13365;52.208;5.488;2023-06-22T08:05:32;31.00;74.50
25440;DHT22;13365;52.208;5.488;2023-06-22T08:07:57;31.20;72.30
25440;DHT22;13365;52.208;5.488;2023-06-22T08:10:23;31.10;71.50
25440;DHT22;13365;52.208;5.488;2023-06-22T08:12:49;31.00;72.10
25440;DHT22;13365;52.208;5.488;2023-06-22T08:15:14;30.90;75.00
25440;DHT22;13365;52.208;5.488;2023-06-22T08:17:40;30.90;73.60
25440;DHT22;13365;52.208;5.488;2023-06-22T08:20:07;31.30;73.80
25440;DHT22;13365;52.208;5.488;2023-06-22T08:22:40;31.40;71.80
25440;DHT22;13365;52.208;5.488;2023-06-22T08:25:06;31.50;71.20
25440;DHT22;13365;52.208;5.488;2023-06-22T08:27:32;31.40;68.50
25440;DHT22;13365;52.208;5.488;2023-06-22T08:29:58;31.10;70.50
25440;DHT22;13365;52.208;5.488;2023-06-22T08:32:28;31.00;70.80
25440;DHT22;13365;52.208;5.488;2023-06-22T08:34:57;30.80;73.20
25440;DHT22;13365;52.208;5.488;2023-06-22T08:37:23;30.90;70.40
25440;DHT22;13365;52.208;5.488;2023-06-22T08:39:58;30.70;68.40
25440;DHT22;13365;52.208;5.488;2023-06-22T08:42:24;30.40;68.30
25440;DHT22;13365;52.208;5.488;2023-06-22T08:44:50;30.10;69.60
25440;DHT22;13365;52.208;5.488;2023-06-22T08:47:16;30.50;72.30
25440;DHT22;13365;52.208;5.488;2023-06-22T08:49:42;30.40;68.60
25440;DHT22;13365;52.208;5.488;2023-06-22T08:52:07;30.40;67.40
25440;DHT22;13365;52.208;5.488;2023-06-22T08:54:33;30.40;70.20
25440;DHT22;13365;52.208;5.488;2023-06-22T08:57:00;30.60;69.80
25440;DHT22;13365;52.208;5.488;2023-06-22T08:59:26;30.80;69.30
25440;DHT22;13365;52.208;5.488;2023-06-22T09:01:51;30.90;68.50
25440;DHT22;13365;52.208;5.488;2023-06-22T09:04:17;31.00;69.30
25440;DHT22;13365;52.208;5.488;2023-06-22T09:06:42;30.70;66.70
25440;DHT22;13365;52.208;5.488;2023-06-22T09:09:12;30.50;68.20
25440;DHT22;13365;52.208;5.488;2023-06-22T09:11:38;30.50;68.50
25440;DHT22;13365;52.208;5.488;2023-06-22T09:14:04;30.70;67.30
25440;DHT22;13365;52.208;5.488;2023-06-22T09:16:29;30.60;68.60
25440;DHT22;13365;52.208;5.488;2023-06-22T09:18:55;31.00;68.50
25440;DHT22;13365;52.208;5.488;2023-06-22T09:21:21;31.20;65.90
25440;DHT22;13365;52.208;5.488;2023-06-22T09:23:47;31.10;64.30
25440;DHT22;13365;52.208;5.488;2023-06-22T09:26:19;30.90;64.50
25440;DHT22;13365;52.208;5.488;2023-06-22T09:28:45;30.70;65.90
25440;DHT22;13365;52.208;5.488;2023-06-22T09:31:10;30.80;67.40
25440;DHT22;13365;52.208;5.488;2023-06-22T09:33:37;30.90;66.20
25440;DHT22;13365;52.208;5.488;2023-06-22T09:36:06;31.00;66.60
25440;DHT22;13365;52.208;5.488;2023-06-22T09:38:34;30.90;65.10
25440;DHT22;13365;52.208;5.488;2023-06-22T09:41:00;31.00;64.70
25440;DHT22;13365;52.208;5.488;2023-06-22T09:43:26;31.00;64.70
25440;DHT22;13365;52.208;5.488;2023-06-22T09:45:52;30.80;67.10
25440;DHT22;13365;52.208;5.488;2023-06-22T09:48:17;31.20;67.50
25440;DHT22;13365;52.208;5.488;2023-06-22T09:50:43;31.70;63.00
25440;DHT22;13365;52.208;5.488;2023-06-22T09:53:09;32.20;62.80
25440;DHT22;13365;52.208;5.488;2023-06-22T09:55:34;32.40;61.70
25440;DHT22;13365;52.208;5.488;2023-06-22T09:58:00;32.50;62.00
25440;DHT22;13365;52.208;5.488;2023-06-22T10:00:25;32.70;61.30
25440;DHT22;13365;52.208;5.488;2023-06-22T10:02:52;32.80;59.50
25440;DHT22;13365;52.208;5.488;2023-06-22T10:05:18;32.30;62.50
25440;DHT22;13365;52.208;5.488;2023-06-22T10:07:43;32.10;61.80
25440;DHT22;13365;52.208;5.488;2023-06-22T10:10:12;32.20;62.00
25440;DHT22;13365;52.208;5.488;2023-06-22T10:12:47;32.00;63.80
25440;DHT22;13365;52.208;5.488;2023-06-22T10:15:13;31.90;63.40
25440;DHT22;13365;52.208;5.488;2023-06-22T10:17:39;31.90;62.50
25440;DHT22;13365;52.208;5.488;2023-06-22T10:20:06;32.00;62.10
25440;DHT22;13365;52.208;5.488;2023-06-22T10:22:39;31.70;60.60
25440;DHT22;13365;52.208;5.488;2023-06-22T10:25:06;31.50;61.90
25440;DHT22;13365;52.208;5.488;2023-06-22T10:27:31;31.20;63.30
25440;DHT22;13365;52.208;5.488;2023-06-22T10:29:57;31.20;65.20
25440;DHT22;13365;52.208;5.488;2023-06-22T10:32:23;31.00;67.00
25440;DHT22;13365;52.208;5.488;2023-06-22T10:34:48;30.90;66.60
25440;DHT22;13365;52.208;5.488;2023-06-22T10:37:14;30.80;64.50
25440;DHT22;13365;52.208;5.488;2023-06-22T10:39:39;30.80;66.00
25440;DHT22;13365;52.208;5.488;2023-06-22T10:42:05;30.70;66.80
25440;DHT22;13365;52.208;5.488;2023-06-22T10:44:31;30.80;68.00
25440;DHT22;13365;52.208;5.488;2023-06-22T10:46:56;30.80;68.20
25440;DHT22;13365;52.208;5.488;2023-06-22T10:49:22;30.80;68.00
25440;DHT22;13365;52.208;5.488;2023-06-22T10:51:47;30.50;68.60
25440;DHT22;13365;52.208;5.488;2023-06-22T10:54:13;30.30;70.10
25440;DHT22;13365;52.208;5.488;2023-06-22T10:56:39;30.10;70.90
25440;DHT22;13365;52.208;5.488;2023-06-22T10:59:05;30.10;71.20
25440;DHT22;13365;52.208;5.488;2023-06-22T11:01:30;30.00;71.10
25440;DHT22;13365;52.208;5.488;2023-06-22T11:03:57;30.00;71.30
25440;DHT22;13365;52.208;5.488;2023-06-22T11:06:22;30.20;71.70
25440;DHT22;13365;52.208;5.488;2023-06-22T11:08:48;30.50;71.80
25440;DHT22;13365;52.208;5.488;2023-06-22T11:11:13;30.60;70.60
25440;DHT22;13365;52.208;5.488;2023-06-22T11:13:39;30.80;70.40
25440;DHT22;13365;52.208;5.488;2023-06-22T11:16:04;30.90;70.20
25440;DHT22;13365;52.208;5.488;2023-06-22T11:18:31;30.80;68.40
25440;DHT22;13365;52.208;5.488;2023-06-22T11:20:58;30.70;68.90
25440;DHT22;13365;52.208;5.488;2023-06-22T11:23:24;30.70;70.10
25440;DHT22;13365;52.208;5.488;2023-06-22T11:25:51;30.70;69.80
25440;DHT22;13365;52.208;5.488;2023-06-22T11:28:17;30.80;68.20
25440;DHT22;13365;52.208;5.488;2023-06-22T11:30:42;30.70;67.80
25440;DHT22;13365;52.208;5.488;2023-06-22T11:33:08;30.70;67.20
25440;DHT22;13365;52.208;5.488;2023-06-22T11:35:33;30.60;68.60
25440;DHT22;13365;52.208;5.488;2023-06-22T11:37:59;30.60;68.00
25440;DHT22;13365;52.208;5.488;2023-06-22T11:40:24;30.40;68.80
25440;DHT22;13365;52.208;5.488;2023-06-22T11:42:50;30.40;69.70
25440;DHT22;13365;52.208;5.488;2023-06-22T11:45:15;30.50;69.20
25440;DHT22;13365;52.208;5.488;2023-06-22T11:47:42;30.60;69.30
25440;DHT22;13365;52.208;5.488;2023-06-22T11:50:08;30.70;68.90
25440;DHT22;13365;52.208;5.488;2023-06-22T11:52:34;30.90;69.30
25440;DHT22;13365;52.208;5.488;2023-06-22T11:55:01;31.00;68.80
25440;DHT22;13365;52.208;5.488;2023-06-22T11:57:29;31.00;68.00
25440;DHT22;13365;52.208;5.488;2023-06-22T11:59:54;30.80;68.60
25440;DHT22;13365;52.208;5.488;2023-06-22T12:02:20;30.90;68.70
25440;DHT22;13365;52.208;5.488;2023-06-22T12:04:45;30.90;68.40
25440;DHT22;13365;52.208;5.488;2023-06-22T12:07:11;31.10;68.00
25440;DHT22;13365;52.208;5.488;2023-06-22T12:09:37;31.20;67.70
25440;DHT22;13365;52.208;5.488;2023-06-22T12:12:03;31.30;68.30
25440;DHT22;13365;52.208;5.488;2023-06-22T12:14:28;31.20;67.50
25440;DHT22;13365;52.208;5.488;2023-06-22T12:16:54;31.20;66.40
25440;DHT22;13365;52.208;5.488;2023-06-22T12:19:19;31.00;65.40
25440;DHT22;13365;52.208;5.488;2023-06-22T12:21:45;30.90;66.60
25440;DHT22;13365;52.208;5.488;2023-06-22T12:24:11;30.80;66.90
25440;DHT22;13365;52.208;5.488;2023-06-22T12:26:38;30.70;67.30
25440;DHT22;13365;52.208;5.488;2023-06-22T12:29:03;30.80;67.60
25440;DHT22;13365;52.208;5.488;2023-06-22T12:31:29;30.80;67.30
25440;DHT22;13365;52.208;5.488;2023-06-22T12:33:54;30.50;65.90
25440;DHT22;13365;52.208;5.488;2023-06-22T12:36:20;30.20;67.30
25440;DHT22;13365;52.208;5.488;2023-06-22T12:38:45;29.80;67.20
25440;DHT22;13365;52.208;5.488;2023-06-22T12:41:11;29.60;67.70
25440;DHT22;13365;52.208;5.488;2023-06-22T12:43:36;29.70;68.20
25440;DHT22;13365;52.208;5.488;2023-06-22T12:46:02;29.80;67.80
25440;DHT22;13365;52.208;5.488;2023-06-22T12:48:27;29.70;68.30
25440;DHT22;13365;52.208;5.488;2023-06-22T12:50:53;29.50;69.50
25440;DHT22;13365;52.208;5.488;2023-06-22T12:53:19;29.10;71.20
25440;DHT22;13365;52.208;5.488;2023-06-22T12:55:44;28.60;72.30
25440;DHT22;13365;52.208;5.488;2023-06-22T12:58:10;28.30;73.00
25440;DHT22;13365;52.208;5.488;2023-06-22T13:00:35;28.20;73.70
25440;DHT22;13365;52.208;5.488;2023-06-22T13:03:01;28.10;76.10
25440;DHT22;13365;52.208;5.488;2023-06-22T13:05:26;28.10;75.40
25440;DHT22;13365;52.208;5.488;2023-06-22T13:07:52;28.30;77.10
25440;DHT22;13365;52.208;5.488;2023-06-22T13:10:17;28.30;76.40
25440;DHT22;13365;52.208;5.488;2023-06-22T13:12:43;28.30;75.00
25440;DHT22;13365;52.208;5.488;2023-06-22T13:15:08;28.30;75.80
25440;DHT22;13365;52.208;5.488;2023-06-22T13:17:34;28.20;73.10
25440;DHT22;13365;52.208;5.488;2023-06-22T13:19:59;28.20;74.10
25440;DHT22;13365;52.208;5.488;2023-06-22T13:22:32;28.30;73.70
25440;DHT22;13365;52.208;5.488;2023-06-22T13:25:00;28.30;74.00
25440;DHT22;13365;52.208;5.488;2023-06-22T13:27:25;28.50;75.00
25440;DHT22;13365;52.208;5.488;2023-06-22T13:29:52;28.60;74.90
25440;DHT22;13365;52.208;5.488;2023-06-22T13:32:17;28.70;75.40
25440;DHT22;13365;52.208;5.488;2023-06-22T13:34:43;28.80;75.80
25440;DHT22;13365;52.208;5.488;2023-06-22T13:37:09;28.80;76.40
25440;DHT22;13365;52.208;5.488;2023-06-22T13:39:34;28.80;77.70
25440;DHT22;13365;52.208;5.488;2023-06-22T13:42:00;28.70;78.90
25440;DHT22;13365;52.208;5.488;2023-06-22T13:44:25;28.60;79.70
25440;DHT22;13365;52.208;5.488;2023-06-22T13:46:54;28.60;80.90
25440;DHT22;13365;52.208;5.488;2023-06-22T13:49:20;28.60;82.00
25440;DHT22;13365;52.208;5.488;2023-06-22T13:51:47;28.40;82.30
25440;DHT22;13365;52.208;5.488;2023-06-22T13:54:13;28.30;83.30
25440;DHT22;13365;52.208;5.488;2023-06-22T13:56:39;28.30;84.80
25440;DHT22;13365;52.208;5.488;2023-06-22T13:59:04;28.20;85.40
25440;DHT22;13365;52.208;5.488;2023-06-22T14:01:30;28.00;85.50
25440;DHT22;13365;52.208;5.488;2023-06-22T14:03:55;28.00;86.90
25440;DHT22;13365;52.208;5.488;2023-06-22T14:06:21;27.80;87.80
25440;DHT22;13365;52.208;5.488;2023-06-22T14:08:46;27.70;88.80
25440;DHT22;13365;52.208;5.488;2023-06-22T14:11:12;27.60;89.00
25440;DHT22;13365;52.208;5.488;2023-06-22T14:13:37;27.50;89.20
25440;DHT22;13365;52.208;5.488;2023-06-22T14:16:03;27.50;89.70
25440;DHT22;13365;52.208;5.488;2023-06-22T14:18:29;27.40;90.00
25440;DHT22;13365;52.208;5.488;2023-06-22T14:20:55;27.40;90.30
25440;DHT22;13365;52.208;5.488;2023-06-22T14:23:20;27.40;90.50
25440;DHT22;13365;52.208;5.488;2023-06-22T14:25:46;27.40;90.70
25440;DHT22;13365;52.208;5.488;2023-06-22T14:28:12;27.30;90.70
25440;DHT22;13365;52.208;5.488;2023-06-22T14:30:37;27.00;91.10
25440;DHT22;13365;52.208;5.488;2023-06-22T14:33:03;26.80;91.20
25440;DHT22;13365;52.208;5.488;2023-06-22T14:35:28;26.60;91.50
25440;DHT22;13365;52.208;5.488;2023-06-22T14:37:54;26.40;91.80
25440;DHT22;13365;52.208;5.488;2023-06-22T14:40:19;26.20;92.00
25440;DHT22;13365;52.208;5.488;2023-06-22T14:42:45;25.90;92.00
25440;DHT22;13365;52.208;5.488;2023-06-22T14:45:10;25.80;92.80
25440;DHT22;13365;52.208;5.488;2023-06-22T14:47:36;25.60;93.60
25440;DHT22;13365;52.208;5.488;2023-06-22T14:50:01;25.50;94.00
25440;DHT22;13365;52.208;5.488;2023-06-22T14:52:27;25.40;94.70
25440;DHT22;13365;52.208;5.488;2023-06-22T14:54:53;25.50;95.10
25440;DHT22;13365;52.208;5.488;2023-06-22T14:57:19;25.60;95.20
25440;DHT22;13365;52.208;5.488;2023-06-22T14:59:46;25.50;95.00
25440;DHT22;13365;52.208;5.488;2023-06-22T15:02:12;25.50;95.10
25440;DHT22;13365;52.208;5.488;2023-06-22T15:04:38;25.50;95.20
25440;DHT22;13365;52.208;5.488;2023-06-22T15:07:03;25.40;95.30
25440;DHT22;13365;52.208;5.488;2023-06-22T15:09:29;25.30;95.50
25440;DHT22;13365;52.208;5.488;2023-06-22T15:11:54;25.30;95.50
25440;DHT22;13365;52.208;5.488;2023-06-22T15:14:20;25.50;95.70
25440;DHT22;13365;52.208;5.488;2023-06-22T15:16:45;25.30;95.90
25440;DHT22;13365;52.208;5.488;2023-06-22T15:19:11;25.20;95.90
25440;DHT22;13365;52.208;5.488;2023-06-22T15:21:38;25.20;96.20
25440;DHT22;13365;52.208;5.488;2023-06-22T15:24:04;25.30;96.40
25440;DHT22;13365;52.208;5.488;2023-06-22T15:26:29;25.40;96.50
25440;DHT22;13365;52.208;5.488;2023-06-22T15:28:55;25.50;96.60
25440;DHT22;13365;52.208;5.488;2023-06-22T15:31:21;25.60;96.70